createdAt,value
2019-03-28T00:03:32.163Z,99.90
2019-03-28T00:08:37.106Z,99.90
2019-03-28T00:13:41.956Z,99.90
2019-03-28T00:18:46.812Z,99.90
2019-03-28T00:24:09.590Z,99.90
2019-03-28T00:29:14.461Z,99.90
2019-03-28T00:34:19.314Z,99.90
2019-03-28T00:39:24.117Z,99.90
2019-03-28T00:44:28.931Z,99.90
2019-03-28T00:49:34.408Z,99.90
2019-03-28T00:54:39.133Z,99.90
2019-03-28T00:59:43.950Z,99.90
2019-03-28T01:04:59.088Z,99.90
2019-03-28T01:10:03.968Z,99.90
2019-03-28T01:15:09.184Z,99.90
2019-03-28T01:20:14.285Z,99.90
2019-03-28T01:25:19.115Z,99.90
2019-03-28T01:30:24.351Z,99.90
2019-03-28T01:35:29.117Z,99.90
2019-03-28T01:40:33.863Z,99.90
2019-03-28T01:45:38.636Z,99.90
2019-03-28T01:50:43.480Z,99.90
2019-03-28T01:55:48.331Z,99.90
2019-03-28T02:00:53.199Z,99.90
2019-03-28T02:05:58.053Z,99.90
2019-03-28T02:11:03.094Z,99.90
2019-03-28T02:16:07.839Z,99.90
2019-03-28T02:21:12.644Z,99.90
2019-03-28T02:26:17.504Z,99.90
2019-03-28T02:31:22.345Z,99.90
2019-03-28T02:36:27.167Z,99.90
2019-03-28T02:41:32.015Z,99.90
2019-03-28T02:46:36.864Z,99.90
2019-03-28T02:51:41.783Z,99.90
2019-03-28T02:56:46.721Z,99.90
2019-03-28T03:01:51.614Z,99.90
2019-03-28T03:06:56.437Z,99.90
2019-03-28T03:12:01.550Z,99.90
2019-03-28T03:17:06.750Z,99.90
2019-03-28T03:22:11.632Z,99.90
2019-03-28T03:27:16.480Z,99.90
2019-03-28T03:32:21.591Z,99.90
2019-03-28T03:37:26.461Z,99.90
2019-03-28T03:42:31.285Z,99.90
2019-03-28T03:47:36.189Z,99.90
2019-03-28T03:52:41.605Z,99.90
2019-03-28T03:57:46.588Z,99.90
2019-03-28T04:02:51.497Z,99.90
2019-03-28T04:07:56.557Z,99.90
2019-03-28T04:13:01.476Z,99.90
2019-03-28T04:18:06.361Z,99.90
2019-03-28T04:23:11.282Z,99.90
2019-03-28T04:28:30.714Z,99.90
2019-03-28T04:33:22.633Z,99.90
2019-03-28T04:38:27.540Z,99.90
2019-03-28T04:43:32.385Z,99.90
2019-03-28T04:48:37.169Z,99.90
2019-03-28T04:53:42.029Z,99.90
2019-03-28T04:58:46.904Z,99.90
2019-03-28T05:03:51.796Z,99.90
2019-03-28T05:08:56.737Z,99.90
2019-03-28T05:14:01.565Z,99.90
2019-03-28T05:19:06.495Z,99.90
2019-03-28T05:24:11.614Z,99.90
2019-03-28T05:29:16.369Z,99.90
2019-03-28T05:34:21.168Z,99.90
2019-03-28T05:39:25.930Z,99.90
2019-03-28T05:44:30.767Z,99.90
2019-03-28T05:49:36.508Z,99.90
2019-03-28T05:54:41.432Z,99.90
2019-03-28T05:59:46.275Z,99.90
2019-03-28T06:04:51.117Z,99.90
2019-03-28T06:09:55.984Z,99.90
2019-03-28T06:15:00.846Z,99.90
2019-03-28T06:20:07.908Z,99.90
2019-03-28T06:25:12.748Z,99.90
2019-03-28T06:30:18.429Z,99.90
2019-03-28T06:35:23.420Z,99.90
2019-03-28T06:40:28.250Z,99.90
2019-03-28T06:45:33.541Z,99.90
2019-03-28T06:50:38.717Z,99.90
2019-03-28T06:55:43.584Z,99.90
2019-03-28T07:00:48.448Z,99.90
2019-03-28T07:05:53.337Z,99.90
2019-03-28T07:16:03.172Z,99.90
2019-03-28T07:21:08.092Z,99.90
2019-03-28T07:26:12.943Z,99.90
2019-03-28T07:31:17.851Z,99.90
2019-03-28T07:36:22.697Z,99.90
2019-03-28T07:41:27.508Z,99.90
2019-03-28T08:41:00.471Z,93.80
2019-03-28T08:50:20.950Z,78.60
2019-03-28T08:55:25.794Z,82.60
2019-03-28T09:00:35.083Z,82.60
2019-03-28T09:05:37.161Z,74.50
2019-03-28T09:10:42.048Z,69.30
2019-03-28T09:15:46.891Z,69.40
2019-03-28T09:20:51.764Z,66.20
2019-03-28T09:36:04.479Z,59.50
2019-03-28T09:41:09.378Z,60.60
2019-03-28T09:46:14.193Z,61.20
2019-03-28T09:51:19.096Z,57.50
2019-03-28T09:56:23.951Z,56.90
2019-03-28T10:01:29.007Z,59.20
2019-03-28T10:06:33.810Z,61.80
2019-03-28T10:11:38.703Z,63.70
2019-03-28T10:16:43.535Z,60.20
2019-03-28T10:21:48.383Z,59.70
2019-03-28T10:26:53.197Z,61.90
2019-03-28T10:31:57.991Z,63.60
2019-03-28T10:37:04.020Z,64.70
2019-03-28T10:42:09.859Z,65.50
2019-03-28T10:47:14.853Z,64.80
2019-03-28T10:52:19.579Z,65.80
2019-03-28T10:57:32.036Z,65.70
2019-03-28T11:02:33.904Z,69.60
2019-03-28T11:07:38.699Z,75.80
2019-03-28T11:12:43.500Z,78.00
2019-03-28T11:17:48.256Z,78.90
2019-03-28T11:31:55.963Z,90.70
2019-03-28T11:37:00.822Z,91.90
2019-03-28T11:42:05.675Z,95.30
2019-03-28T11:47:10.612Z,94.30
2019-03-28T11:52:15.534Z,95.10
2019-03-28T11:57:20.382Z,96.90
2019-03-28T12:02:25.457Z,99.90
2019-03-28T12:07:34.024Z,99.90
2019-03-28T12:13:08.587Z,99.90
2019-03-28T12:18:13.448Z,99.90
2019-03-28T12:23:18.315Z,99.90
2019-03-28T12:28:23.150Z,99.90
2019-03-28T12:33:27.981Z,99.90
2019-03-28T12:38:32.826Z,99.90
2019-03-28T12:43:39.131Z,99.90
2019-03-28T12:48:44.081Z,99.90
2019-03-28T12:53:48.950Z,99.90
2019-03-28T12:58:53.745Z,99.90
2019-03-28T13:03:59.013Z,99.90
2019-03-28T13:09:06.012Z,99.90
2019-03-28T13:14:10.962Z,99.90
2019-03-28T13:19:15.863Z,99.90
2019-03-28T13:24:20.655Z,99.90
2019-03-28T13:29:25.522Z,99.90
2019-03-28T13:34:30.265Z,99.90
2019-03-28T13:39:35.022Z,99.90
2019-03-28T13:44:39.759Z,99.90
2019-03-28T13:49:44.576Z,99.90
2019-03-28T13:54:49.834Z,99.90
2019-03-28T13:59:55.937Z,99.90
2019-03-28T14:05:00.657Z,99.90
2019-03-28T14:10:06.257Z,99.90
2019-03-28T14:15:11.006Z,99.90
2019-03-28T14:20:16.279Z,99.90
2019-03-28T14:25:21.062Z,99.90
2019-03-28T14:30:25.812Z,99.90
2019-03-28T14:35:30.557Z,99.90
2019-03-28T14:40:35.659Z,99.90
2019-03-28T14:45:40.405Z,99.90
2019-03-28T14:50:45.340Z,99.90
2019-03-28T14:55:50.650Z,99.90
2019-03-28T15:00:55.444Z,99.90
2019-03-28T15:06:00.252Z,99.90
2019-03-28T15:11:05.044Z,99.90
2019-03-28T15:16:09.788Z,99.90
2019-03-28T15:21:14.561Z,99.90
2019-03-28T15:26:22.132Z,99.90
2019-03-28T15:31:27.444Z,99.90
2019-03-28T15:40:36.063Z,99.90
2019-03-28T15:45:40.891Z,99.90
2019-03-28T15:50:45.832Z,99.90
2019-03-28T15:55:50.694Z,99.90
2019-03-28T16:00:55.554Z,99.90
2019-03-28T16:06:00.303Z,99.90
2019-03-28T16:11:05.649Z,99.90
2019-03-28T16:16:10.452Z,99.90
2019-03-28T16:21:15.301Z,99.90
2019-03-28T16:26:21.153Z,99.90
2019-03-28T16:31:26.323Z,99.90
2019-03-28T16:36:31.113Z,99.90
2019-03-28T16:41:35.963Z,99.90
2019-03-28T16:46:40.865Z,99.90
2019-03-28T16:54:27.966Z,99.90
2019-03-28T16:59:32.940Z,99.90
2019-03-28T17:04:38.297Z,99.90
2019-03-28T17:09:43.426Z,99.90
2019-03-28T17:14:48.247Z,99.90
2019-03-28T17:19:53.149Z,99.90
2019-03-28T17:24:58.071Z,99.90
2019-03-28T17:30:07.222Z,99.90
2019-03-28T17:35:13.036Z,99.90
2019-03-28T17:40:17.969Z,99.90
2019-03-28T17:45:22.793Z,99.90
2019-03-28T17:50:27.997Z,99.90
2019-03-28T17:55:32.858Z,99.90
2019-03-28T18:00:38.084Z,99.90
2019-03-28T18:05:43.029Z,99.90
2019-03-28T18:10:48.007Z,99.90
2019-03-28T18:15:52.766Z,99.90
2019-03-28T18:20:57.691Z,99.90
2019-03-28T18:26:02.571Z,99.90
2019-03-28T18:31:07.369Z,99.90
2019-03-28T18:36:12.198Z,99.90
2019-03-28T18:41:17.036Z,99.90
2019-03-28T18:46:21.754Z,99.90
2019-03-28T18:51:26.531Z,99.90
2019-03-28T18:56:31.380Z,99.90
2019-03-28T19:01:36.178Z,99.90
2019-03-28T19:06:41.048Z,99.90
2019-03-28T19:11:45.803Z,99.90
2019-03-28T19:16:52.328Z,99.90
2019-03-28T19:21:57.615Z,99.90
2019-03-28T19:27:02.471Z,99.90
2019-03-28T19:32:07.320Z,99.90
2019-03-28T19:37:12.685Z,99.90
2019-03-28T19:42:22.469Z,99.90
2019-03-28T19:47:28.520Z,99.90
2019-03-28T19:52:32.708Z,99.90
2019-03-28T19:57:38.806Z,99.90
2019-03-28T20:02:43.584Z,99.90
2019-03-28T20:07:48.467Z,99.90
2019-03-28T20:12:53.407Z,99.90
2019-03-28T20:17:58.303Z,99.90
2019-03-28T20:23:03.124Z,99.90
2019-03-28T20:28:07.938Z,99.90
2019-03-28T20:33:12.683Z,99.90
2019-03-28T20:38:18.116Z,99.90
2019-03-28T20:43:22.948Z,99.90
2019-03-28T20:48:27.711Z,99.90
2019-03-28T20:53:32.531Z,99.90
2019-03-28T20:58:37.831Z,99.90
2019-03-28T21:03:42.904Z,99.90
2019-03-28T21:08:47.740Z,99.90
2019-03-28T21:13:52.652Z,99.90
2019-03-28T21:18:57.524Z,99.90
2019-03-28T21:24:02.291Z,99.90
2019-03-28T21:29:07.121Z,99.90
2019-03-28T21:34:11.968Z,99.90
2019-03-28T21:39:16.862Z,99.90
2019-03-28T21:44:22.887Z,99.90
2019-03-28T21:49:27.894Z,99.90
2019-03-28T21:54:32.607Z,99.90
2019-03-28T21:59:37.357Z,99.90
2019-03-28T22:04:42.130Z,99.90
2019-03-28T22:09:48.351Z,99.90
2019-03-28T22:14:53.124Z,99.90
2019-03-28T22:19:57.980Z,99.90
2019-03-28T22:25:02.761Z,99.90
2019-03-28T22:30:08.421Z,99.90
2019-03-28T22:35:13.180Z,99.90
2019-03-28T22:40:17.922Z,99.90
2019-03-28T22:45:22.738Z,99.90
2019-03-28T22:50:27.575Z,99.90
2019-03-28T22:55:32.345Z,99.90
2019-03-28T23:00:47.153Z,99.90
2019-03-28T23:05:51.924Z,99.90
2019-03-28T23:10:56.661Z,99.90
2019-03-28T23:16:02.910Z,99.90
2019-03-28T23:21:07.911Z,99.90
2019-03-28T23:26:12.768Z,99.90
2019-03-28T23:31:17.534Z,99.90
2019-03-28T23:36:22.274Z,99.90
2019-03-28T23:41:27.092Z,99.90
2019-03-28T23:46:31.971Z,99.90
2019-03-28T23:51:36.809Z,99.90
2019-03-28T23:56:41.549Z,99.90
